»·PEaware :: N292VF KSFO-KONT

N292VF :: KSFO-KONT

FLIGHT INFORMATION

Flight Status: Arrived
Operator: Privately registered:
United States
More flights under this callsign
Pilot: Sanjiv Singh (4490)
Aircraft: MCDONNELL-DOUGLAS DC-6/B LIFTMASTER
(DC6)
More flights by this aircraft type
Origin: KSFO San Francisco Intl
United States
Destination: KONT Ontario Intl
United States
More flights between these airports :: More routes between these airports
Route: +GAPP7 OSI V87 SNS V137 ARRAN V8 PDZ
File this flight plan on PilotEdge
Remarks:
Altitude:
(Current/Filed)
21,000ft
Speed:
(Current/Filed)
240kts
Departed: 22-Oct-16 08:35 AM
Arrived: 22-Oct-16 10:33 AM
Distance/Time
Traveled:
316nm/1:57
Distance/Time
To Go:
Arrived

Flight Plot

Page will automatically refresh every two minutes.

Flight plan parsing failed; only flown route is shown


Map Options




Map Legend


Flown Route
Filed Route
Departure Airport
Arrival Airport
Navaid (VOR, NDB)
Fix

Horizontal Profiles

Position Reports

Time Latitude Longitude Heading Altitude Ground
Speed
22-Oct-16 07:49 37.627184 -122.383616 297 22ft 0kts
22-Oct-16 07:50 37.627184 -122.383616 297 22ft 0kts
22-Oct-16 07:51 37.627184 -122.383616 297 22ft 0kts
22-Oct-16 07:52 37.627184 -122.383616 297 22ft 0kts
22-Oct-16 07:53 37.627184 -122.383616 297 22ft 0kts
22-Oct-16 07:54 37.627184 -122.383616 297 22ft 0kts
22-Oct-16 07:55 37.627184 -122.383616 297 22ft 0kts
22-Oct-16 07:56 37.627184 -122.383616 297 22ft 0kts
22-Oct-16 07:57 37.627184 -122.383616 297 22ft 0kts
22-Oct-16 07:58 37.627184 -122.383616 297 22ft 0kts
22-Oct-16 07:59 37.627184 -122.383616 297 22ft 0kts
22-Oct-16 08:00 37.627184 -122.383616 297 22ft 0kts
22-Oct-16 08:01 37.627184 -122.383616 297 22ft 0kts
22-Oct-16 08:02 37.627184 -122.383616 297 22ft 0kts
22-Oct-16 08:03 37.627184 -122.383616 297 22ft 0kts
22-Oct-16 08:04 37.627184 -122.383616 297 22ft 0kts
22-Oct-16 08:05 37.627184 -122.383616 297 22ft 0kts
22-Oct-16 08:06 37.627184 -122.383616 297 22ft 0kts
22-Oct-16 08:07 37.627184 -122.383616 297 22ft 0kts
22-Oct-16 08:08 37.627184 -122.383616 297 22ft 0kts
22-Oct-16 08:09 37.627184 -122.383616 297 22ft 0kts
22-Oct-16 08:10 37.627184 -122.383616 297 22ft 0kts
22-Oct-16 08:11 37.627184 -122.383616 297 22ft 0kts
22-Oct-16 08:12 37.627184 -122.383616 297 22ft 0kts
22-Oct-16 08:13 37.627184 -122.383616 297 22ft 0kts
22-Oct-16 08:14 37.627251 -122.383784 297 22ft 3kts
22-Oct-16 08:15 37.627241 -122.384308 220 22ft 0kts
22-Oct-16 08:16 37.627241 -122.384308 220 22ft 0kts
22-Oct-16 08:17 37.627241 -122.384308 220 22ft 0kts
22-Oct-16 08:18 37.627241 -122.384308 220 22ft 0kts
22-Oct-16 08:19 37.627241 -122.384308 220 22ft 0kts
22-Oct-16 08:20 37.627241 -122.384308 220 22ft 0kts
22-Oct-16 08:21 37.627241 -122.384308 220 22ft 0kts
22-Oct-16 08:22 37.626844 -122.384611 192 22ft 3kts
22-Oct-16 08:23 37.624284 -122.384677 208 22ft 20kts
22-Oct-16 08:24 37.620679 -122.384450 116 22ft 23kts
22-Oct-16 08:25 37.615620 -122.380328 208 22ft 29kts
22-Oct-16 08:26 37.609709 -122.384406 216 22ft 15kts
22-Oct-16 08:27 37.608456 -122.383894 114 22ft 0kts
22-Oct-16 08:28 37.608456 -122.383894 114 22ft 0kts
22-Oct-16 08:29 37.608197 -122.383120 108 22ft 7kts
22-Oct-16 08:30 37.611432 -122.380578 27 22ft 76kts
22-Oct-16 08:31 37.638909 -122.368213 348 909ft 114kts
22-Oct-16 08:32 37.674031 -122.371713 355 1779ft 142kts
22-Oct-16 08:33 37.719489 -122.374038 356 2512ft 170kts
22-Oct-16 08:34 37.765131 -122.375884 356 3268ft 161kts
22-Oct-16 08:35 37.809485 -122.372860 1 3929ft 159kts
22-Oct-16 08:36 37.846156 -122.369996 1 4512ft 156kts
22-Oct-16 08:37 37.891044 -122.352479 71 5249ft 163kts
22-Oct-16 08:38 37.868370 -122.325874 204 5680ft 162kts
22-Oct-16 08:39 37.823628 -122.324541 173 6326ft 165kts
22-Oct-16 08:40 37.778025 -122.318730 179 6978ft 165kts
22-Oct-16 08:41 37.732498 -122.314189 180 7633ft 165kts
22-Oct-16 08:42 37.686747 -122.309661 180 8294ft 164kts
22-Oct-16 08:43 37.641512 -122.305206 180 8952ft 164kts
22-Oct-16 08:44 37.596603 -122.300801 180 9611ft 163kts
22-Oct-16 08:45 37.551591 -122.296400 180 10277ft 162kts
22-Oct-16 08:46 37.502271 -122.291709 180 10280ft 198kts
22-Oct-16 08:47 37.448935 -122.288145 182 11030ft 184kts
22-Oct-16 08:48 37.399132 -122.278092 174 11659ft 182kts
22-Oct-16 08:49 37.355158 -122.245546 162 12200ft 184kts
22-Oct-16 08:50 37.307735 -122.223459 164 12755ft 183kts
22-Oct-16 08:51 37.260043 -122.200290 164 13300ft 184kts
22-Oct-16 08:52 37.213043 -122.174089 160 13831ft 186kts
22-Oct-16 08:53 37.166231 -122.146208 161 14354ft 186kts
22-Oct-16 08:54 37.119559 -122.118474 161 14865ft 187kts
22-Oct-16 08:55 37.073394 -122.091102 161 15343ft 189kts
22-Oct-16 08:56 37.025810 -122.062940 161 15812ft 191kts
22-Oct-16 08:57 36.977473 -122.034376 160 16273ft 194kts
22-Oct-16 08:58 36.928667 -122.004591 145 16719ft 201kts
22-Oct-16 08:59 36.906280 -121.937567 130 17122ft 209kts
22-Oct-16 09:00 36.871540 -121.881513 134 17591ft 208kts
22-Oct-16 09:01 36.835790 -121.824418 134 18072ft 209kts
22-Oct-16 09:02 36.796325 -121.772945 142 18534ft 207kts
22-Oct-16 09:03 36.755329 -121.722279 142 19003ft 208kts
22-Oct-16 09:04 36.714207 -121.671075 142 19464ft 208kts
22-Oct-16 09:05 36.673405 -121.619905 142 19911ft 209kts
22-Oct-16 09:06 36.633263 -121.566876 122 20332ft 219kts
22-Oct-16 09:07 36.614777 -121.492967 108 20760ft 226kts
22-Oct-16 09:08 36.591008 -121.423407 142 20925ft 223kts
22-Oct-16 09:09 36.542912 -121.371092 139 20920ft 241kts
22-Oct-16 09:10 36.505140 -121.301160 127 21015ft 253kts
22-Oct-16 09:11 36.465966 -121.229748 131 21238ft 252kts
22-Oct-16 09:12 36.436003 -121.147140 125 21169ft 265kts
22-Oct-16 09:13 36.394226 -121.071933 135 20989ft 270kts
22-Oct-16 09:14 36.348060 -120.998265 134 21000ft 272kts
22-Oct-16 09:15 36.301503 -120.923707 134 21002ft 274kts
22-Oct-16 09:16 36.254641 -120.848715 134 21002ft 276kts
22-Oct-16 09:17 36.207673 -120.773613 134 21002ft 276kts
22-Oct-16 09:18 36.160804 -120.698698 134 21002ft 277kts
22-Oct-16 09:19 36.113459 -120.622987 134 21002ft 277kts
22-Oct-16 09:20 36.066129 -120.547678 134 21003ft 277kts
22-Oct-16 09:21 36.018856 -120.472839 134 21003ft 277kts
22-Oct-16 09:22 35.967709 -120.402917 141 20998ft 274kts
22-Oct-16 09:23 35.915214 -120.337999 142 20990ft 272kts
22-Oct-16 09:24 35.860517 -120.278549 153 21001ft 266kts
22-Oct-16 09:25 35.804127 -120.219028 135 21003ft 276kts
22-Oct-16 09:26 35.756046 -120.145761 135 21000ft 277kts
22-Oct-16 09:27 35.707799 -120.072006 135 21001ft 277kts
22-Oct-16 09:28 35.659429 -119.998029 135 21004ft 277kts
22-Oct-16 09:29 35.611078 -119.924175 135 21000ft 277kts
22-Oct-16 09:30 35.562541 -119.850119 135 20995ft 278kts
22-Oct-16 09:31 35.514078 -119.776322 135 20988ft 278kts
22-Oct-16 09:32 35.460743 -119.710116 142 20986ft 274kts
22-Oct-16 09:33 35.405796 -119.644590 142 20987ft 274kts
22-Oct-16 09:34 35.351201 -119.579587 140 20986ft 275kts
22-Oct-16 09:35 35.298256 -119.511611 139 20986ft 276kts
22-Oct-16 09:36 35.246304 -119.443410 139 20986ft 276kts
22-Oct-16 09:37 35.194154 -119.374590 139 20986ft 276kts
22-Oct-16 09:38 35.154073 -119.321311 139 20981ft 276kts
22-Oct-16 09:39 35.094415 -119.242075 139 20981ft 275kts
22-Oct-16 09:40 35.051122 -119.184995 139 20981ft 274kts
22-Oct-16 09:41 34.999603 -119.117293 139 20981ft 274kts
22-Oct-16 09:42 34.947928 -119.049548 138 20981ft 273kts
22-Oct-16 09:43 34.896379 -118.982102 138 21010ft 272kts
22-Oct-16 09:44 34.846743 -118.917286 138 21049ft 272kts
22-Oct-16 09:45 34.801307 -118.846077 109 21089ft 284kts
22-Oct-16 09:46 34.780955 -118.753069 109 21117ft 286kts
22-Oct-16 09:47 34.760625 -118.659185 109 21090ft 288kts
22-Oct-16 09:48 34.740189 -118.564647 109 21053ft 290kts
22-Oct-16 09:49 34.720105 -118.471958 109 21053ft 290kts
22-Oct-16 09:50 34.699553 -118.377460 109 21050ft 291kts
22-Oct-16 09:51 34.680556 -118.288910 109 21048ft 290kts
22-Oct-16 09:52 34.660076 -118.194411 109 21048ft 290kts
22-Oct-16 09:53 34.639425 -118.100281 109 21049ft 290kts
22-Oct-16 09:54 34.607722 -118.012838 123 21048ft 284kts
22-Oct-16 09:55 34.569645 -117.928887 124 21048ft 284kts
22-Oct-16 09:56 34.531581 -117.845640 124 21047ft 284kts
22-Oct-16 09:57 34.493362 -117.762208 124 21047ft 284kts
22-Oct-16 09:58 34.454140 -117.676929 124 20329ft 292kts
22-Oct-16 09:59 34.414520 -117.591027 123 19401ft 297kts
22-Oct-16 10:00 34.374476 -117.504413 123 18527ft 296kts
22-Oct-16 10:01 34.334483 -117.418130 123 17679ft 293kts
22-Oct-16 10:02 34.295408 -117.333884 123 16856ft 290kts
22-Oct-16 10:03 34.256480 -117.249736 124 16021ft 287kts
22-Oct-16 10:04 34.205495 -117.187805 187 15071ft 265kts
22-Oct-16 10:05 34.150029 -117.229313 176 14551ft 256kts
22-Oct-16 10:06 34.080644 -117.222772 186 13586ft 259kts
22-Oct-16 10:07 34.007456 -117.221062 183 12356ft 266kts
22-Oct-16 10:08 33.978222 -117.287686 263 10978ft 270kts
22-Oct-16 10:09 33.984534 -117.375238 275 9852ft 265kts
22-Oct-16 10:10 33.991694 -117.461294 275 8752ft 259kts
22-Oct-16 10:11 33.997734 -117.545586 275 7668ft 256kts
22-Oct-16 10:12 34.003024 -117.629613 275 6589ft 253kts
22-Oct-16 10:13 34.020873 -117.700821 333 5659ft 247kts
22-Oct-16 10:14 34.059411 -117.656562 73 5430ft 229kts
22-Oct-16 10:15 34.076631 -117.591049 70 5511ft 167kts
22-Oct-16 10:16 34.088121 -117.546527 70 4139ft 129kts
22-Oct-16 10:17 34.097908 -117.509200 70 3994ft 142kts
22-Oct-16 10:18 34.110178 -117.463496 70 3980ft 152kts
22-Oct-16 10:19 34.119755 -117.414513 76 3980ft 155kts
22-Oct-16 10:20 34.128754 -117.363040 85 3980ft 170kts
22-Oct-16 10:21 34.092540 -117.333767 162 3983ft 181kts
22-Oct-16 10:22 34.051617 -117.346941 256 3966ft 177kts
22-Oct-16 10:23 34.059282 -117.401803 272 3853ft 167kts
22-Oct-16 10:24 34.056157 -117.457627 265 3139ft 166kts
22-Oct-16 10:25 34.055027 -117.511392 274 2204ft 158kts
22-Oct-16 10:26 34.054996 -117.555761 266 1430ft 107kts
22-Oct-16 10:27 34.054961 -117.592052 271 952ft 89kts
22-Oct-16 10:28 34.054374 -117.601857 226 952ft 9kts
22-Oct-16 10:29 34.054225 -117.602046 226 952ft 0kts
22-Oct-16 10:30 34.052618 -117.601477 152 952ft 9kts
22-Oct-16 10:31 34.052546 -117.600863 58 952ft 0kts

Navigation Log

Ident Type
Flight plan parsing failed, navigation log unavailable